Irkutsk Airport
UIII : now visible

Airfield :











YOU CAN JOIN US ON...

 
LOGIN :

Register | Disclaimer

   EN    FR    IT 

 









Legend :    VFR   Marginal VFR   IFR   Intensive IFR   Very Intensive IFR
Visi :
Ceiling :
>= 8 km
>= 3000ft
5 to 8 km
1000 to 3000 ft
1500m to 5 km
500 to 1000 ft
800 to 1500m
200 to 500 ft
< 800m
< 200 ft
Symbols :   Thunderstorms  Fog  Heavy snow  Heavy precipitations  Wind > 20 kt






- Airport Elevation : 1675 ft
- IATA code : IKT


UIII - Irkutsk

CURRENT METAR :
  • 221200Z 09002MPS 8000 NSC M19/M21 Q1025 R30/820555 NOSIG RMK QFE723/0965

EXPIRED METARs :
  • 221130Z 05003G08MPS 6000 NSC M21/M25 Q1025 R30/820555 NOSIG RMK QFE723/0965
  • 221100Z 07002MPS CAVOK M18/M22 Q1025 R30/820555 NOSIG RMK QFE723/0965
  • 221030Z 05002MPS CAVOK M18/M21 Q1025 R30/820555 NOSIG RMK QFE723/0965
  • 221000Z 04002MPS 360V060 CAVOK M17/M21 Q1024 R30/820555 NOSIG RMK QFE723/0964
  • 220930Z 02002MPS CAVOK M17/M21 Q1024 R30/820555 NOSIG RMK QFE723/0964

TAF TAF UIII
Valid from the 22 at 12:00 until the 23 at 12:00 UTC


221100Z 2212/2312 VRB01MPS 9999 NSC
TEMPO 2214/2303 0300 FZFG VV001



MET'MAP, your aeronautical weather chart ! - Copyright ORBIFLY December 2007 - Disclaimer

ORBIFLY MET'MAP TEAM :

Programming & Development : Alexandra Zaïnal
Concept & Development : Baudouin d'Aumeries
Co-Development & Prog : Marc-Olivier Méhu
Technical & hardware support : Manuel Goepfert

Contact : metmap@orbifly.com




SOURCES & CREDITS :

   NOAA       Earth
Advisory